Time;durP1;ratioP1;P1;durP2;ratioP2;P2;SDS_P1;SDS_P2;PMS_P1;PMS_P2;Temp;Humidity;BMP_temperature;BMP_pressure;BME280_temperature;BME280_humidity;BME280_pressure;Samples;Min_cycle;Max_cycle;Signal;HPM_P1;HPM_P2
2021/04/29 00:01:10;;;;;;;9.73;7.07;;;;;;;;;;5033956;28;20174;-74
2021/04/29 00:03:35;;;;;;;10.30;7.43;;;;;;;;;;5016278;28;20657;-74
2021/04/29 00:06:04;;;;;;;9.47;7.33;;;;;;;;;;5033719;28;20542;-74
2021/04/29 00:08:30;;;;;;;10.17;7.83;;;;;;;;;;5034008;28;20170;-74
2021/04/29 00:10:56;;;;;;;9.67;7.40;;;;;;;;;;5016312;28;20185;-74
2021/04/29 00:13:22;;;;;;;9.17;7.23;;;;;;;;;;5016154;28;20210;-74
2021/04/29 00:15:48;;;;;;;9.70;8.23;;;;;;;;;;5016060;28;20240;-74
2021/04/29 00:18:15;;;;;;;8.00;7.13;;;;;;;;;;5016055;28;20699;-74
2021/04/29 00:20:41;;;;;;;8.70;7.50;;;;;;;;;;5032882;28;20689;-74
2021/04/29 00:23:07;;;;;;;9.30;8.30;;;;;;;;;;5015912;28;20217;-74
2021/04/29 00:25:33;;;;;;;9.93;7.20;;;;;;;;;;5015721;28;20212;-74
2021/04/29 00:27:59;;;;;;;10.70;7.90;;;;;;;;;;4999405;28;20291;-74
2021/04/29 00:30:24;;;;;;;9.57;7.27;;;;;;;;;;4999614;28;20190;-74
2021/04/29 00:32:51;;;;;;;12.53;7.83;;;;;;;;;;4999292;28;20186;-74
2021/04/29 00:35:17;;;;;;;9.40;7.60;;;;;;;;;;5015727;28;20205;-74
2021/04/29 00:37:43;;;;;;;8.87;7.50;;;;;;;;;;5015606;28;20221;-74
2021/04/29 00:40:09;;;;;;;9.20;7.87;;;;;;;;;;5015546;28;20205;-74
2021/04/29 00:42:36;;;;;;;11.93;7.77;;;;;;;;;;5015739;28;20253;-74
2021/04/29 00:45:02;;;;;;;9.23;7.23;;;;;;;;;;5033044;28;20642;-74
2021/04/29 00:47:28;;;;;;;9.37;7.77;;;;;;;;;;5015605;28;20206;-74
2021/04/29 00:49:53;;;;;;;9.83;7.20;;;;;;;;;;5033053;28;20193;-74
2021/04/29 00:52:19;;;;;;;8.50;7.07;;;;;;;;;;5033079;28;20182;-74
2021/04/29 00:54:45;;;;;;;11.37;7.70;;;;;;;;;;5015063;28;20182;-74
2021/04/29 00:57:11;;;;;;;10.87;7.73;;;;;;;;;;5032935;28;20540;-74
2021/04/29 00:59:37;;;;;;;10.07;7.77;;;;;;;;;;4998854;28;20202;-74
2021/04/29 01:02:04;;;;;;;10.63;8.07;;;;;;;;;;5015391;28;20206;-74
2021/04/29 01:04:34;;;;;;;10.17;8.00;;;;;;;;;;4998578;28;20182;-74
2021/04/29 01:07:02;;;;;;;8.83;7.40;;;;;;;;;;4998782;28;20214;-74
2021/04/29 01:09:33;;;;;;;10.90;7.50;;;;;;;;;;4998721;28;20558;-74
2021/04/29 01:12:04;;;;;;;10.07;7.87;;;;;;;;;;4999187;28;20250;-74
2021/04/29 01:14:30;;;;;;;10.47;7.73;;;;;;;;;;5015025;28;20241;-74
2021/04/29 01:16:57;;;;;;;8.53;7.53;;;;;;;;;;5032542;28;20201;-73
2021/04/29 01:19:23;;;;;;;9.33;7.37;;;;;;;;;;5015074;28;20665;-74
2021/04/29 01:21:49;;;;;;;8.73;7.60;;;;;;;;;;5032590;28;20239;-74
2021/04/29 01:24:20;;;;;;;9.27;7.17;;;;;;;;;;5014924;28;20178;-73
2021/04/29 01:26:51;;;;;;;7.97;7.17;;;;;;;;;;5014796;28;20281;-74
2021/04/29 01:29:18;;;;;;;9.07;7.63;;;;;;;;;;5015300;28;20181;-74
2021/04/29 01:31:44;;;;;;;8.47;7.57;;;;;;;;;;5014457;28;20190;-73
2021/04/29 01:34:11;;;;;;;10.63;7.97;;;;;;;;;;5014271;28;20183;-73
2021/04/29 01:36:37;;;;;;;9.27;7.37;;;;;;;;;;5014562;28;20225;-74
2021/04/29 01:39:05;;;;;;;9.03;7.60;;;;;;;;;;5014908;28;20194;-74
2021/04/29 01:41:31;;;;;;;9.57;7.50;;;;;;;;;;5014890;28;20176;-74
2021/04/29 01:43:57;;;;;;;8.93;7.63;;;;;;;;;;5014845;28;20553;-74
2021/04/29 01:46:23;;;;;;;11.17;8.47;;;;;;;;;;5014394;28;20201;-74
2021/04/29 01:48:49;;;;;;;9.47;7.70;;;;;;;;;;5014726;28;20257;-74
2021/04/29 01:51:15;;;;;;;9.17;8.23;;;;;;;;;;4998097;28;20205;-73
2021/04/29 01:53:41;;;;;;;10.37;8.90;;;;;;;;;;5014476;28;20646;-74
2021/04/29 01:56:07;;;;;;;10.10;8.40;;;;;;;;;;5014218;28;20182;-74
2021/04/29 01:58:33;;;;;;;11.00;8.23;;;;;;;;;;5014380;28;20636;-74
2021/04/29 02:01:00;;;;;;;13.30;9.07;;;;;;;;;;5014219;28;20181;-73
2021/04/29 02:03:27;;;;;;;10.03;9.00;;;;;;;;;;5031856;28;20178;-73
2021/04/29 02:05:53;;;;;;;9.27;7.97;;;;;;;;;;5013549;28;20174;-73
2021/04/29 02:08:18;;;;;;;14.57;8.77;;;;;;;;;;5014397;28;20190;-74
2021/04/29 02:10:44;;;;;;;11.53;8.63;;;;;;;;;;5014405;28;20185;-73
2021/04/29 02:13:11;;;;;;;10.53;8.87;;;;;;;;;;5014198;28;20264;-73
2021/04/29 02:15:38;;;;;;;12.33;9.03;;;;;;;;;;5014214;28;20217;-73
2021/04/29 02:18:11;;;;;;;10.40;8.63;;;;;;;;;;5014145;28;20237;-73
2021/04/29 02:20:39;;;;;;;10.80;8.77;;;;;;;;;;5014244;28;20223;-73
2021/04/29 02:23:11;;;;;;;10.40;9.30;;;;;;;;;;5031657;28;20234;-73
2021/04/29 02:25:37;;;;;;;10.97;8.70;;;;;;;;;;5014097;28;20240;-73
2021/04/29 02:28:03;;;;;;;10.67;8.67;;;;;;;;;;5014037;28;20288;-73
2021/04/29 02:30:29;;;;;;;9.70;8.37;;;;;;;;;;4997753;28;20591;-74
2021/04/29 02:32:55;;;;;;;11.40;9.43;;;;;;;;;;5031449;28;20761;-74
2021/04/29 02:35:21;;;;;;;10.23;8.57;;;;;;;;;;5013947;28;20182;-73
2021/04/29 02:37:48;;;;;;;11.00;8.47;;;;;;;;;;5014101;28;20236;-74
2021/04/29 02:40:14;;;;;;;11.17;8.93;;;;;;;;;;5013967;28;20197;-74
2021/04/29 02:42:40;;;;;;;10.73;9.23;;;;;;;;;;5014072;28;20589;-74
2021/04/29 02:45:10;;;;;;;11.33;9.13;;;;;;;;;;5034276;28;20656;-74
2021/04/29 02:47:46;;;;;;;9.80;8.73;;;;;;;;;;5017874;28;20222;-73
2021/04/29 02:50:12;;;;;;;12.47;9.50;;;;;;;;;;5017936;28;20184;-74
2021/04/29 02:52:38;;;;;;;11.20;9.37;;;;;;;;;;5017692;28;20208;-74
2021/04/29 02:55:07;;;;;;;11.17;9.93;;;;;;;;;;5017618;28;20604;-74
2021/04/29 02:57:33;;;;;;;11.73;9.53;;;;;;;;;;5035360;28;20205;-74
2021/04/29 02:59:59;;;;;;;10.27;9.03;;;;;;;;;;5035224;28;20202;-73
2021/04/29 03:02:25;;;;;;;11.77;9.27;;;;;;;;;;5017620;28;20608;-73
2021/04/29 03:04:51;;;;;;;13.23;9.13;;;;;;;;;;5017171;28;20177;-74
2021/04/29 03:07:17;;;;;;;10.77;8.50;;;;;;;;;;5034968;28;20817;-73
2021/04/29 03:09:43;;;;;;;14.07;10.03;;;;;;;;;;5034899;28;20180;-73
2021/04/29 03:12:09;;;;;;;10.83;9.40;;;;;;;;;;5017432;28;20185;-74
2021/04/29 03:14:35;;;;;;;12.40;9.33;;;;;;;;;;5017418;28;20181;-73
2021/04/29 03:17:01;;;;;;;11.60;9.40;;;;;;;;;;5034740;28;20251;-73
2021/04/29 03:19:27;;;;;;;13.20;9.77;;;;;;;;;;5017050;28;20784;-73
2021/04/29 03:21:53;;;;;;;10.00;8.90;;;;;;;;;;5017007;28;20547;-74
2021/04/29 03:24:19;;;;;;;12.27;9.47;;;;;;;;;;5034668;28;20190;-73
2021/04/29 03:26:45;;;;;;;11.27;9.37;;;;;;;;;;5034475;28;20252;-73
2021/04/29 03:29:11;;;;;;;10.53;9.20;;;;;;;;;;5034532;28;20181;-73
2021/04/29 03:31:37;;;;;;;13.90;9.83;;;;;;;;;;5017183;28;20566;-73
2021/04/29 03:34:03;;;;;;;12.07;9.00;;;;;;;;;;5034629;28;20193;-73
2021/04/29 03:36:29;;;;;;;14.40;9.73;;;;;;;;;;5042858;23;20212;-74
2021/04/29 03:38:55;;;;;;;13.43;10.10;;;;;;;;;;4960685;28;20670;-74
2021/04/29 03:41:21;;;;;;;10.10;9.03;;;;;;;;;;4977558;28;20187;-73
2021/04/29 03:43:47;;;;;;;13.73;10.50;;;;;;;;;;4994976;28;20653;-74
2021/04/29 03:46:13;;;;;;;12.67;10.63;;;;;;;;;;4961311;28;20174;-74
2021/04/29 03:48:39;;;;;;;12.63;10.03;;;;;;;;;;4996643;28;20197;-74
2021/04/29 03:51:05;;;;;;;12.07;10.57;;;;;;;;;;4997083;28;20522;-74
2021/04/29 03:53:31;;;;;;;11.83;10.40;;;;;;;;;;4996883;28;20192;-74
2021/04/29 03:55:57;;;;;;;14.27;10.53;;;;;;;;;;4995446;28;20188;-74
2021/04/29 03:58:24;;;;;;;13.97;10.40;;;;;;;;;;4980535;28;20212;-73
2021/04/29 04:00:50;;;;;;;14.93;10.87;;;;;;;;;;5014080;28;20210;-73
2021/04/29 04:03:16;;;;;;;12.47;10.63;;;;;;;;;;4996891;28;20549;-74
2021/04/29 04:05:42;;;;;;;11.87;10.43;;;;;;;;;;4996515;28;20181;-74
2021/04/29 04:08:08;;;;;;;11.80;10.47;;;;;;;;;;5014069;28;20207;-74
2021/04/29 04:10:33;;;;;;;13.07;10.33;;;;;;;;;;4980430;28;20222;-73
2021/04/29 04:12:59;;;;;;;12.47;10.70;;;;;;;;;;4996364;28;20182;-74
2021/04/29 04:15:25;;;;;;;13.30;10.87;;;;;;;;;;4996390;28;20184;-74
2021/04/29 04:17:51;;;;;;;12.83;10.83;;;;;;;;;;4980107;28;20205;-74
2021/04/29 04:20:17;;;;;;;12.10;10.70;;;;;;;;;;4979992;28;20205;-73
2021/04/29 04:22:43;;;;;;;12.37;10.63;;;;;;;;;;4980019;28;20640;-74
2021/04/29 04:25:09;;;;;;;13.63;11.80;;;;;;;;;;4996359;28;20182;-73
2021/04/29 04:27:36;;;;;;;11.93;10.63;;;;;;;;;;5013571;28;20193;-73
2021/04/29 04:30:02;;;;;;;13.27;10.60;;;;;;;;;;4996453;28;20190;-73
2021/04/29 04:32:28;;;;;;;14.13;11.40;;;;;;;;;;5013697;28;20194;-74
2021/04/29 04:34:54;;;;;;;14.40;10.57;;;;;;;;;;4995886;28;20234;-74
2021/04/29 04:37:20;;;;;;;15.53;11.33;;;;;;;;;;4996034;28;20265;-74
2021/04/29 04:39:45;;;;;;;13.50;10.63;;;;;;;;;;4996237;28;20201;-73
2021/04/29 04:42:11;;;;;;;13.33;11.00;;;;;;;;;;4996176;28;20737;-74
2021/04/29 04:44:37;;;;;;;13.87;10.53;;;;;;;;;;4980339;28;20273;-74
2021/04/29 04:47:03;;;;;;;12.47;10.27;;;;;;;;;;4995717;28;20209;-74
2021/04/29 04:49:29;;;;;;;14.60;10.93;;;;;;;;;;5013514;28;20182;-74
2021/04/29 04:51:55;;;;;;;11.93;9.80;;;;;;;;;;4995869;28;20189;-74
2021/04/29 04:54:22;;;;;;;14.80;10.53;;;;;;;;;;5008611;28;20270;-74
2021/04/29 04:56:48;;;;;;;12.30;10.90;;;;;;;;;;4980875;28;20714;-74
2021/04/29 04:59:14;;;;;;;12.97;10.90;;;;;;;;;;4976200;28;20547;-71
2021/04/29 05:01:40;;;;;;;16.97;11.13;;;;;;;;;;4976298;28;20176;-70
2021/04/29 05:04:09;;;;;;;14.63;11.33;;;;;;;;;;4976155;28;20657;-69
2021/04/29 05:06:35;;;;;;;12.43;11.03;;;;;;;;;;4975828;28;20261;-69
2021/04/29 05:09:01;;;;;;;11.20;9.77;;;;;;;;;;4976179;28;20239;-70
2021/04/29 05:11:27;;;;;;;11.50;10.30;;;;;;;;;;4993258;28;20186;-70
2021/04/29 05:13:53;;;;;;;11.80;9.90;;;;;;;;;;4993179;28;20578;-70
2021/04/29 05:16:19;;;;;;;11.57;9.97;;;;;;;;;;4992964;28;20178;-70
2021/04/29 05:18:45;;;;;;;13.37;9.17;;;;;;;;;;4993188;28;20184;-70
2021/04/29 05:21:11;;;;;;;11.17;9.00;;;;;;;;;;4993215;28;20672;-69
2021/04/29 05:23:37;;;;;;;12.03;9.10;;;;;;;;;;4975890;28;20182;-70
2021/04/29 05:26:03;;;;;;;11.93;8.60;;;;;;;;;;4993007;28;20176;-69
2021/04/29 05:28:29;;;;;;;10.20;8.47;;;;;;;;;;4993074;28;20679;-70
2021/04/29 05:30:55;;;;;;;11.90;8.80;;;;;;;;;;4975828;28;20189;-70
2021/04/29 05:33:21;;;;;;;8.53;7.63;;;;;;;;;;4993020;28;20192;-69
2021/04/29 05:35:47;;;;;;;11.63;8.07;;;;;;;;;;4992817;28;20231;-70
2021/04/29 05:38:13;;;;;;;10.70;8.53;;;;;;;;;;5005807;28;20223;-69
2021/04/29 05:40:39;;;;;;;9.07;7.97;;;;;;;;;;5012461;28;20209;-70
2021/04/29 05:43:05;;;;;;;10.00;7.73;;;;;;;;;;5012578;28;20205;-70
2021/04/29 05:45:31;;;;;;;10.50;7.60;;;;;;;;;;5012450;28;20183;-69
2021/04/29 05:47:57;;;;;;;8.53;7.63;;;;;;;;;;4994960;28;20201;-71
2021/04/29 05:50:23;;;;;;;10.03;8.10;;;;;;;;;;5012446;28;20299;-69
2021/04/29 05:52:49;;;;;;;11.73;8.70;;;;;;;;;;4994911;28;20224;-69
2021/04/29 05:55:15;;;;;;;12.53;7.70;;;;;;;;;;4994551;28;20191;-70
2021/04/29 05:57:41;;;;;;;13.33;9.20;;;;;;;;;;4994906;28;20280;-70
2021/04/29 06:00:07;;;;;;;11.03;8.50;;;;;;;;;;4994754;28;20284;-70
2021/04/29 06:02:34;;;;;;;13.50;8.60;;;;;;;;;;4994963;28;20283;-69
2021/04/29 06:05:00;;;;;;;12.20;8.87;;;;;;;;;;5012071;28;20184;-69
2021/04/29 06:07:25;;;;;;;13.67;8.40;;;;;;;;;;5008945;28;20206;-69
2021/04/29 06:09:51;;;;;;;11.67;8.57;;;;;;;;;;5010377;28;20197;-71
2021/04/29 06:12:17;;;;;;;11.30;8.87;;;;;;;;;;5031925;28;20178;-69
2021/04/29 06:14:44;;;;;;;13.27;8.93;;;;;;;;;;5014154;28;20793;-70
2021/04/29 06:17:10;;;;;;;14.87;9.17;;;;;;;;;;5031580;28;20204;-70
2021/04/29 06:19:36;;;;;;;15.67;10.87;;;;;;;;;;5016343;28;20204;-70
2021/04/29 06:22:02;;;;;;;17.00;10.10;;;;;;;;;;5018375;28;20172;-69
2021/04/29 06:24:28;;;;;;;14.50;10.67;;;;;;;;;;4977586;28;20189;-69
2021/04/29 06:26:54;;;;;;;11.43;8.80;;;;;;;;;;5011729;28;20201;-69
2021/04/29 06:29:20;;;;;;;16.13;9.90;;;;;;;;;;4978040;28;20280;-70
2021/04/29 06:31:46;;;;;;;17.27;10.27;;;;;;;;;;4992763;28;20621;-69
2021/04/29 06:34:13;;;;;;;14.17;10.07;;;;;;;;;;5035695;28;20186;-70
2021/04/29 06:36:39;;;;;;;15.10;10.47;;;;;;;;;;5001506;28;20296;-69
2021/04/29 06:39:05;;;;;;;14.83;11.07;;;;;;;;;;5035562;28;20212;-69
2021/04/29 06:41:31;;;;;;;21.83;13.40;;;;;;;;;;5018016;28;20178;-69
2021/04/29 06:43:57;;;;;;;17.33;12.00;;;;;;;;;;5017986;28;20184;-69
2021/04/29 06:46:23;;;;;;;22.30;13.67;;;;;;;;;;5035280;28;20589;-70
2021/04/29 06:48:49;;;;;;;20.53;13.17;;;;;;;;;;5035530;28;20181;-69
2021/04/29 06:51:15;;;;;;;22.37;14.10;;;;;;;;;;5035464;28;20696;-69
2021/04/29 06:53:41;;;;;;;21.10;14.00;;;;;;;;;;5017486;28;20182;-70
2021/04/29 06:56:07;;;;;;;18.33;11.60;;;;;;;;;;5017550;28;20178;-69
2021/04/29 06:58:34;;;;;;;19.20;12.50;;;;;;;;;;5017653;28;20209;-69
2021/04/29 07:01:00;;;;;;;18.83;13.33;;;;;;;;;;5027094;28;20260;-68
2021/04/29 07:03:26;;;;;;;22.43;13.27;;;;;;;;;;4981733;28;20632;-70
2021/04/29 07:05:52;;;;;;;18.10;10.33;;;;;;;;;;5015215;28;20254;-69
2021/04/29 07:08:18;;;;;;;18.13;13.37;;;;;;;;;;4997835;28;20289;-69
2021/04/29 07:10:44;;;;;;;19.70;13.27;;;;;;;;;;4997929;28;20214;-68
2021/04/29 07:13:10;;;;;;;20.20;13.90;;;;;;;;;;4997799;28;20186;-70
2021/04/29 07:15:36;;;;;;;16.20;11.63;;;;;;;;;;5015019;28;20186;-69
2021/04/29 07:18:04;;;;;;;18.13;12.43;;;;;;;;;;4997702;28;20202;-69
2021/04/29 07:20:30;;;;;;;21.43;13.63;;;;;;;;;;4998294;28;20216;-69
2021/04/29 07:22:56;;;;;;;22.00;13.50;;;;;;;;;;5013695;28;20210;-73
2021/04/29 07:25:25;;;;;;;20.17;12.40;;;;;;;;;;4997520;28;20527;-72
2021/04/29 07:27:51;;;;;;;16.03;12.83;;;;;;;;;;4999277;28;20187;-72
2021/04/29 07:30:17;;;;;;;17.47;12.17;;;;;;;;;;4987019;28;20660;-71
2021/04/29 07:32:43;;;;;;;16.63;10.87;;;;;;;;;;5015697;28;20213;-71
2021/04/29 07:35:10;;;;;;;18.80;12.90;;;;;;;;;;5016998;28;20566;-69
2021/04/29 07:37:36;;;;;;;20.77;13.27;;;;;;;;;;5016763;28;20252;-70
2021/04/29 07:40:02;;;;;;;18.77;12.00;;;;;;;;;;5014735;28;20730;-71
2021/04/29 07:45:32;;;;;;;18.47;12.80;;;;;;;;;;5005239;28;20241;-70
2021/04/29 07:47:58;;;;;;;17.40;13.17;;;;;;;;;;4997139;28;20246;-70
2021/04/29 07:50:24;;;;;;;20.50;13.30;;;;;;;;;;4996944;28;20240;-70
2021/04/29 07:52:50;;;;;;;21.47;13.30;;;;;;;;;;5014297;28;20175;-70
2021/04/29 07:55:16;;;;;;;16.53;12.70;;;;;;;;;;5014324;28;20783;-70
2021/04/29 07:57:42;;;;;;;21.97;12.83;;;;;;;;;;4996826;28;20207;-69
2021/04/29 08:00:09;;;;;;;16.77;12.93;;;;;;;;;;4996479;28;20209;-69
2021/04/29 08:02:35;;;;;;;20.37;13.60;;;;;;;;;;5027766;28;20178;-69
2021/04/29 08:05:01;;;;;;;16.20;13.13;;;;;;;;;;4997999;28;20235;-70
2021/04/29 08:07:27;;;;;;;17.87;13.50;;;;;;;;;;5031955;28;20199;-69
2021/04/29 08:09:53;;;;;;;20.77;13.47;;;;;;;;;;5032073;28;20182;-69
2021/04/29 08:12:19;;;;;;;19.07;13.47;;;;;;;;;;5031825;28;20217;-70
2021/04/29 08:14:45;;;;;;;18.03;13.13;;;;;;;;;;5014141;28;20326;-70
2021/04/29 08:17:11;;;;;;;16.60;13.80;;;;;;;;;;5015018;28;20206;-69
2021/04/29 08:19:37;;;;;;;16.60;11.53;;;;;;;;;;5015958;28;20202;-69
2021/04/29 08:22:03;;;;;;;16.93;12.63;;;;;;;;;;4999565;28;20189;-70
2021/04/29 08:24:29;;;;;;;18.47;12.80;;;;;;;;;;5015934;28;20635;-70
2021/04/29 08:26:55;;;;;;;17.50;13.13;;;;;;;;;;5015732;28;20198;-69
2021/04/29 08:29:23;;;;;;;16.17;12.67;;;;;;;;;;5033582;28;20175;-70
2021/04/29 08:31:48;;;;;;;16.93;11.73;;;;;;;;;;5033516;28;20237;-70
2021/04/29 08:34:14;;;;;;;16.10;13.33;;;;;;;;;;5033407;28;20178;-70
2021/04/29 08:36:40;;;;;;;17.20;13.67;;;;;;;;;;5015535;28;20201;-70
2021/04/29 08:39:06;;;;;;;18.33;13.03;;;;;;;;;;5015834;28;20290;-70
2021/04/29 08:41:32;;;;;;;16.63;13.07;;;;;;;;;;5015211;28;20186;-70
2021/04/29 08:43:58;;;;;;;17.57;13.17;;;;;;;;;;5033263;28;20183;-70
2021/04/29 08:46:24;;;;;;;17.73;13.70;;;;;;;;;;5032995;28;20230;-70
2021/04/29 08:48:54;;;;;;;18.63;13.17;;;;;;;;;;5033209;28;20175;-70
2021/04/29 08:51:20;;;;;;;20.67;13.67;;;;;;;;;;5015360;28;20179;-70
2021/04/29 08:53:48;;;;;;;24.70;13.37;;;;;;;;;;5015340;28;20171;-70
2021/04/29 08:56:14;;;;;;;21.57;13.43;;;;;;;;;;5015604;28;20178;-70
2021/04/29 08:58:40;;;;;;;19.97;14.93;;;;;;;;;;5032857;28;20199;-71
2021/04/29 09:01:06;;;;;;;19.37;14.83;;;;;;;;;;5032921;28;20210;-70
2021/04/29 09:03:32;;;;;;;18.00;14.00;;;;;;;;;;5015197;28;20708;-70
2021/04/29 09:05:59;;;;;;;19.47;13.50;;;;;;;;;;5015112;28;20179;-70
2021/04/29 09:08:31;;;;;;;17.47;13.70;;;;;;;;;;5015276;28;20195;-70
2021/04/29 09:11:16;;;;;;;18.73;13.17;;;;;;;;;;5015276;28;20606;-71
2021/04/29 09:14:03;;;;;;;19.93;14.37;;;;;;;;;;5015129;28;20189;-70
2021/04/29 09:16:38;;;;;;;17.43;13.90;;;;;;;;;;5032241;28;20194;-70
2021/04/29 09:19:04;;;;;;;20.40;13.00;;;;;;;;;;5032544;28;20178;-70
2021/04/29 09:21:33;;;;;;;20.47;14.50;;;;;;;;;;5032614;28;20179;-70
2021/04/29 09:23:59;;;;;;;17.30;13.87;;;;;;;;;;5014894;28;20179;-70
2021/04/29 09:26:25;;;;;;;19.90;12.93;;;;;;;;;;5014800;28;20179;-70
2021/04/29 09:28:55;;;;;;;18.57;15.13;;;;;;;;;;5032261;28;20634;-70
2021/04/29 09:31:25;;;;;;;19.47;14.03;;;;;;;;;;4998676;28;20202;-71
2021/04/29 09:33:52;;;;;;;20.20;15.00;;;;;;;;;;5014831;28;20186;-70
2021/04/29 09:36:22;;;;;;;17.77;13.60;;;;;;;;;;5014616;28;20185;-73
2021/04/29 09:38:55;;;;;;;20.90;15.13;;;;;;;;;;5015189;28;20197;-70
2021/04/29 09:41:32;;;;;;;21.07;15.50;;;;;;;;;;4998347;28;20195;-70
2021/04/29 09:43:59;;;;;;;24.57;18.40;;;;;;;;;;5014648;28;20197;-73
2021/04/29 09:46:25;;;;;;;20.97;18.33;;;;;;;;;;5006177;28;20234;-72
2021/04/29 09:48:51;;;;;;;25.13;18.80;;;;;;;;;;5012403;28;20180;-75
2021/04/29 09:51:18;;;;;;;23.67;20.27;;;;;;;;;;5012566;28;20175;-75
2021/04/29 09:53:47;;;;;;;28.77;19.77;;;;;;;;;;4991125;28;20171;-74
2021/04/29 09:56:13;;;;;;;27.17;20.97;;;;;;;;;;4984399;28;20183;-75
2021/04/29 09:58:48;;;;;;;26.87;21.03;;;;;;;;;;4986495;28;20203;-74
2021/04/29 10:01:14;;;;;;;27.70;22.47;;;;;;;;;;4996049;28;20539;-71
2021/04/29 10:03:41;;;;;;;28.23;22.30;;;;;;;;;;4977514;28;20207;-71
2021/04/29 10:06:09;;;;;;;24.37;20.47;;;;;;;;;;4992458;28;20639;-71
2021/04/29 10:08:35;;;;;;;25.47;21.50;;;;;;;;;;4977887;28;20283;-70
2021/04/29 10:11:01;;;;;;;25.87;21.57;;;;;;;;;;4991204;28;20183;-71
2021/04/29 10:13:30;;;;;;;33.07;22.90;;;;;;;;;;4981441;28;20189;-69
2021/04/29 10:15:57;;;;;;;28.43;21.70;;;;;;;;;;5000085;28;20721;-71
2021/04/29 10:18:23;;;;;;;28.60;23.70;;;;;;;;;;4994348;28;20219;-70
2021/04/29 10:20:49;;;;;;;31.03;25.53;;;;;;;;;;4981637;28;20304;-71
2021/04/29 10:23:17;;;;;;;34.07;25.63;;;;;;;;;;5011991;28;20199;-71
2021/04/29 10:25:48;;;;;;;28.97;25.23;;;;;;;;;;4994896;28;20222;-72
2021/04/29 10:28:14;;;;;;;30.47;24.00;;;;;;;;;;4979813;28;20278;-73
2021/04/29 10:30:40;;;;;;;33.60;24.53;;;;;;;;;;4992402;28;20263;-72
2021/04/29 10:33:13;;;;;;;28.07;23.13;;;;;;;;;;4975057;28;20231;-73
2021/04/29 10:35:48;;;;;;;25.57;20.13;;;;;;;;;;4975548;28;20667;-74
2021/04/29 10:38:21;;;;;;;27.60;21.07;;;;;;;;;;4959207;28;20270;-74
2021/04/29 10:40:47;;;;;;;27.93;22.40;;;;;;;;;;4976920;28;20200;-78
2021/04/29 10:43:13;;;;;;;26.67;20.97;;;;;;;;;;4976655;28;20177;-73
2021/04/29 10:45:39;;;;;;;27.00;22.17;;;;;;;;;;4959100;28;20263;-72
2021/04/29 10:48:09;;;;;;;30.10;21.40;;;;;;;;;;4975603;28;20199;-73
2021/04/29 10:50:45;;;;;;;27.77;21.73;;;;;;;;;;4959910;28;20670;-73
2021/04/29 10:53:11;;;;;;;26.83;21.13;;;;;;;;;;4974628;28;20180;-71
2021/04/29 10:55:38;;;;;;;29.87;22.00;;;;;;;;;;4991853;28;20188;-73
2021/04/29 10:58:05;;;;;;;30.57;22.83;;;;;;;;;;4983763;28;20640;-71
2021/04/29 11:00:32;;;;;;;29.80;20.27;;;;;;;;;;4997908;28;20702;-71
2021/04/29 11:02:58;;;;;;;31.43;21.93;;;;;;;;;;4990638;28;20180;-72
2021/04/29 11:05:25;;;;;;;23.27;18.40;;;;;;;;;;5023762;28;20258;-71
2021/04/29 11:07:51;;;;;;;23.87;18.27;;;;;;;;;;5001312;28;20202;-75
2021/04/29 11:10:17;;;;;;;23.40;19.17;;;;;;;;;;5018111;28;20175;-74
2021/04/29 11:12:46;;;;;;;24.37;18.27;;;;;;;;;;5018639;28;20179;-74
2021/04/29 11:15:19;;;;;;;24.30;19.30;;;;;;;;;;5016402;28;20183;-75
2021/04/29 11:17:45;;;;;;;21.07;17.07;;;;;;;;;;4983462;28;20675;-74
2021/04/29 11:20:11;;;;;;;21.47;15.53;;;;;;;;;;4996962;28;20269;-75
2021/04/29 11:22:38;;;;;;;21.97;15.97;;;;;;;;;;4996069;28;20234;-77
2021/04/29 11:25:10;;;;;;;18.67;15.33;;;;;;;;;;4979402;28;20180;-73
2021/04/29 11:27:38;;;;;;;20.13;16.23;;;;;;;;;;4995313;28;20200;-72
2021/04/29 11:30:06;;;;;;;22.73;16.17;;;;;;;;;;4996590;28;20650;-73
2021/04/29 11:32:32;;;;;;;19.20;17.10;;;;;;;;;;5005544;28;20179;-72
2021/04/29 11:34:59;;;;;;;20.10;16.27;;;;;;;;;;4997245;28;20187;-71
2021/04/29 11:37:25;;;;;;;22.60;17.30;;;;;;;;;;4996906;28;20213;-72
2021/04/29 11:39:58;;;;;;;20.80;17.30;;;;;;;;;;4980637;28;20235;-71
2021/04/29 11:42:28;;;;;;;23.93;17.80;;;;;;;;;;4997204;28;20164;-73
2021/04/29 11:45:04;;;;;;;21.17;17.10;;;;;;;;;;4986149;28;20180;-72
2021/04/29 11:47:30;;;;;;;22.77;17.77;;;;;;;;;;4975923;28;20203;-72
2021/04/29 11:49:56;;;;;;;22.50;16.40;;;;;;;;;;5013646;28;20179;-72
2021/04/29 11:52:23;;;;;;;21.23;16.90;;;;;;;;;;4996909;28;20247;-73
2021/04/29 11:54:49;;;;;;;22.13;17.23;;;;;;;;;;4980896;28;20230;-73
2021/04/29 11:57:15;;;;;;;19.97;16.50;;;;;;;;;;4981026;28;20231;-74
2021/04/29 11:59:41;;;;;;;22.80;18.10;;;;;;;;;;4994594;28;20207;-74
2021/04/29 12:02:08;;;;;;;24.30;18.80;;;;;;;;;;5000358;28;20183;-72
2021/04/29 12:04:34;;;;;;;24.50;18.70;;;;;;;;;;5016835;28;20253;-74
2021/04/29 12:07:00;;;;;;;24.33;19.53;;;;;;;;;;5016216;28;20226;-74
2021/04/29 12:09:26;;;;;;;26.60;20.90;;;;;;;;;;4999709;28;20179;-74
2021/04/29 12:11:53;;;;;;;24.13;19.77;;;;;;;;;;5000323;28;20187;-74
2021/04/29 12:14:22;;;;;;;25.23;20.27;;;;;;;;;;5000732;28;20241;-74
2021/04/29 12:16:48;;;;;;;23.87;19.77;;;;;;;;;;5015830;28;20199;-74
2021/04/29 12:19:14;;;;;;;23.17;19.27;;;;;;;;;;4990919;28;20298;-74
2021/04/29 12:21:40;;;;;;;22.80;18.60;;;;;;;;;;4977397;28;20624;-73
2021/04/29 12:24:08;;;;;;;25.40;20.63;;;;;;;;;;4977033;28;20624;-74
2021/04/29 12:26:35;;;;;;;26.03;20.23;;;;;;;;;;4976947;28;20177;-74
2021/04/29 12:29:11;;;;;;;26.07;21.87;;;;;;;;;;4977011;28;20180;-73
2021/04/29 12:31:38;;;;;;;28.13;22.17;;;;;;;;;;4976736;28;20217;-72
2021/04/29 12:34:04;;;;;;;28.83;23.00;;;;;;;;;;4976814;28;20752;-72
2021/04/29 12:36:31;;;;;;;25.47;19.40;;;;;;;;;;4993709;28;20169;-73
2021/04/29 12:38:57;;;;;;;21.97;17.03;;;;;;;;;;4976722;28;20177;-73
2021/04/29 12:41:27;;;;;;;21.73;16.90;;;;;;;;;;4993962;28;20180;-72
2021/04/29 12:43:57;;;;;;;16.63;13.03;;;;;;;;;;4976589;28;20263;-72
2021/04/29 12:46:36;;;;;;;16.53;13.63;;;;;;;;;;4960776;28;20186;-82
2021/04/29 12:49:03;;;;;;;13.20;10.43;;;;;;;;;;4977305;28;20191;-78
2021/04/29 12:51:29;;;;;;;12.27;9.57;;;;;;;;;;4978406;28;20172;-73
2021/04/29 12:54:01;;;;;;;13.67;10.00;;;;;;;;;;5013272;28;20172;-75
2021/04/29 12:56:46;;;;;;;14.37;10.70;;;;;;;;;;4995765;28;20152;-73
2021/04/29 12:59:12;;;;;;;16.93;10.50;;;;;;;;;;4979523;28;20175;-74
2021/04/29 13:01:40;;;;;;;14.67;11.37;;;;;;;;;;5013226;28;20179;-75
2021/04/29 13:04:16;;;;;;;15.10;11.23;;;;;;;;;;4996060;28;20251;-74
2021/04/29 13:06:42;;;;;;;14.53;12.07;;;;;;;;;;4995727;28;20209;-76
2021/04/29 13:09:08;;;;;;;13.20;11.67;;;;;;;;;;4979437;28;20180;-74
2021/04/29 13:11:42;;;;;;;13.10;10.40;;;;;;;;;;4995699;28;20172;-74
2021/04/29 13:14:18;;;;;;;10.97;9.20;;;;;;;;;;4995945;28;20175;-73
2021/04/29 13:16:46;;;;;;;12.00;8.03;;;;;;;;;;4994346;28;20246;-74
2021/04/29 13:19:13;;;;;;;9.73;7.37;;;;;;;;;;4994411;28;20179;-75
2021/04/29 13:21:39;;;;;;;8.67;6.67;;;;;;;;;;4994769;28;20680;-75
2021/04/29 13:24:05;;;;;;;12.10;6.30;;;;;;;;;;4994386;28;20211;-72
2021/04/29 13:26:31;;;;;;;7.93;5.53;;;;;;;;;;4977869;28;20205;-72
2021/04/29 13:28:57;;;;;;;7.63;6.57;;;;;;;;;;4976949;28;20631;-73
2021/04/29 13:31:23;;;;;;;8.87;5.77;;;;;;;;;;4995076;28;20179;-74
2021/04/29 13:33:49;;;;;;;7.47;5.40;;;;;;;;;;5012504;28;20257;-72
2021/04/29 13:36:16;;;;;;;8.57;5.30;;;;;;;;;;4995456;28;20696;-72
2021/04/29 13:38:42;;;;;;;8.60;5.80;;;;;;;;;;4995041;28;20290;-73
2021/04/29 13:41:08;;;;;;;11.83;6.20;;;;;;;;;;4995139;28;20203;-73
2021/04/29 13:43:34;;;;;;;7.27;6.17;;;;;;;;;;4995008;28;20240;-72
2021/04/29 13:46:01;;;;;;;7.83;5.47;;;;;;;;;;5012377;28;20171;-73
2021/04/29 13:48:28;;;;;;;9.17;5.37;;;;;;;;;;5012321;28;20221;-72
2021/04/29 13:50:54;;;;;;;9.67;6.53;;;;;;;;;;4995109;28;20226;-73
2021/04/29 13:53:20;;;;;;;10.77;7.03;;;;;;;;;;5012066;28;20183;-73
2021/04/29 13:55:46;;;;;;;10.63;7.43;;;;;;;;;;5012190;28;20177;-73
2021/04/29 13:58:12;;;;;;;11.10;8.00;;;;;;;;;;4994585;28;20198;-73
2021/04/29 14:00:38;;;;;;;10.83;7.33;;;;;;;;;;4994646;28;20249;-75
2021/04/29 14:03:07;;;;;;;9.93;7.27;;;;;;;;;;5014350;28;20183;-75
2021/04/29 14:05:36;;;;;;;11.10;8.03;;;;;;;;;;5017999;28;20691;-74
2021/04/29 14:08:02;;;;;;;9.27;7.67;;;;;;;;;;5005409;28;20258;-75
2021/04/29 14:10:29;;;;;;;11.07;8.60;;;;;;;;;;4976921;28;20733;-74
2021/04/29 14:12:55;;;;;;;11.90;7.67;;;;;;;;;;4999701;28;20221;-75
2021/04/29 14:15:21;;;;;;;9.67;6.63;;;;;;;;;;5000292;28;20208;-75
2021/04/29 14:17:47;;;;;;;11.43;7.90;;;;;;;;;;4978283;28;20232;-74
2021/04/29 14:20:13;;;;;;;9.30;6.47;;;;;;;;;;5007105;28;20720;-75
2021/04/29 14:22:39;;;;;;;10.37;7.97;;;;;;;;;;5014623;28;20208;-75
2021/04/29 14:25:05;;;;;;;12.70;8.67;;;;;;;;;;4998225;28;20224;-75